sensor_id;sensor_type;location;lat;lon;timestamp;pressure;altitude;pressure_sealevel;temperature;humidity
30636;BME280;17400;52.392;9.750;2022-07-22T04:03:21;101261.84;;;19.44;100.00
30636;BME280;17400;52.392;9.750;2022-07-22T04:05:49;101261.72;;;19.51;100.00
30636;BME280;17400;52.392;9.750;2022-07-22T04:08:17;101257.28;;;19.50;100.00
30636;BME280;17400;52.392;9.750;2022-07-22T04:10:44;101261.22;;;19.54;100.00
30636;BME280;17400;52.392;9.750;2022-07-22T04:13:12;101261.81;;;19.56;100.00
30636;BME280;17400;52.392;9.750;2022-07-22T04:15:40;101263.41;;;19.52;100.00
30636;BME280;17400;52.392;9.750;2022-07-22T04:18:07;101266.72;;;19.54;100.00
30636;BME280;17400;52.392;9.750;2022-07-22T04:20:36;101264.59;;;19.44;100.00
30636;BME280;17400;52.392;9.750;2022-07-22T04:23:04;101265.22;;;19.34;100.00
30636;BME280;17400;52.392;9.750;2022-07-22T04:25:32;101267.38;;;19.32;100.00
30636;BME280;17400;52.392;9.750;2022-07-22T04:28:00;101268.56;;;19.36;100.00
30636;BME280;17400;52.392;9.750;2022-07-22T04:30:27;101275.50;;;19.27;100.00
30636;BME280;17400;52.392;9.750;2022-07-22T04:32:55;101265.94;;;19.29;100.00
30636;BME280;17400;52.392;9.750;2022-07-22T04:35:23;101268.22;;;19.21;100.00
30636;BME280;17400;52.392;9.750;2022-07-22T04:37:52;101267.03;;;19.28;100.00
30636;BME280;17400;52.392;9.750;2022-07-22T04:40:19;101267.88;;;19.29;100.00
30636;BME280;17400;52.392;9.750;2022-07-22T04:42:47;101270.22;;;19.37;100.00
30636;BME280;17400;52.392;9.750;2022-07-22T04:45:15;101276.81;;;19.24;100.00
30636;BME280;17400;52.392;9.750;2022-07-22T04:47:43;101271.81;;;19.33;100.00
30636;BME280;17400;52.392;9.750;2022-07-22T04:50:10;101269.41;;;19.25;100.00
30636;BME280;17400;52.392;9.750;2022-07-22T04:52:38;101269.53;;;19.18;100.00
30636;BME280;17400;52.392;9.750;2022-07-22T04:55:14;101272.41;;;19.11;100.00
30636;BME280;17400;52.392;9.750;2022-07-22T04:57:43;101274.91;;;19.13;100.00
30636;BME280;17400;52.392;9.750;2022-07-22T05:00:13;101281.00;;;19.27;100.00
30636;BME280;17400;52.392;9.750;2022-07-22T05:02:42;101287.56;;;19.26;100.00
30636;BME280;17400;52.392;9.750;2022-07-22T05:05:10;101284.81;;;19.26;100.00
30636;BME280;17400;52.392;9.750;2022-07-22T05:07:38;101292.78;;;19.27;100.00
30636;BME280;17400;52.392;9.750;2022-07-22T05:10:06;101293.66;;;19.28;100.00
30636;BME280;17400;52.392;9.750;2022-07-22T05:12:35;101299.59;;;19.25;100.00
30636;BME280;17400;52.392;9.750;2022-07-22T05:15:04;101298.53;;;19.26;100.00
30636;BME280;17400;52.392;9.750;2022-07-22T05:17:33;101299.84;;;19.23;100.00
30636;BME280;17400;52.392;9.750;2022-07-22T05:20:01;101303.69;;;19.10;100.00
30636;BME280;17400;52.392;9.750;2022-07-22T05:22:29;101297.13;;;19.11;100.00
30636;BME280;17400;52.392;9.750;2022-07-22T05:25:04;101299.72;;;19.18;100.00
30636;BME280;17400;52.392;9.750;2022-07-22T05:27:32;101300.44;;;19.25;100.00
30636;BME280;17400;52.392;9.750;2022-07-22T05:30:01;101305.22;;;19.18;100.00
30636;BME280;17400;52.392;9.750;2022-07-22T05:32:29;101302.59;;;19.11;100.00
30636;BME280;17400;52.392;9.750;2022-07-22T05:34:56;101314.31;;;19.07;100.00
30636;BME280;17400;52.392;9.750;2022-07-22T05:37:24;101305.72;;;19.15;100.00
30636;BME280;17400;52.392;9.750;2022-07-22T05:39:52;101311.06;;;19.22;100.00
30636;BME280;17400;52.392;9.750;2022-07-22T05:42:19;101311.44;;;19.25;100.00
30636;BME280;17400;52.392;9.750;2022-07-22T05:44:47;101304.50;;;19.23;100.00
30636;BME280;17400;52.392;9.750;2022-07-22T05:47:16;101314.06;;;19.20;100.00
30636;BME280;17400;52.392;9.750;2022-07-22T05:49:43;101313.22;;;19.20;100.00
30636;BME280;17400;52.392;9.750;2022-07-22T05:52:11;101318.47;;;19.21;100.00
30636;BME280;17400;52.392;9.750;2022-07-22T05:54:39;101317.75;;;19.26;100.00
30636;BME280;17400;52.392;9.750;2022-07-22T05:57:07;101322.41;;;19.25;100.00
30636;BME280;17400;52.392;9.750;2022-07-22T05:59:36;101327.28;;;19.23;100.00
30636;BME280;17400;52.392;9.750;2022-07-22T06:02:04;101326.59;;;19.04;100.00
30636;BME280;17400;52.392;9.750;2022-07-22T06:04:33;101325.66;;;19.10;100.00
30636;BME280;17400;52.392;9.750;2022-07-22T06:07:02;101325.28;;;19.19;100.00
30636;BME280;17400;52.392;9.750;2022-07-22T06:09:32;101320.63;;;19.19;100.00
30636;BME280;17400;52.392;9.750;2022-07-22T06:12:00;101324.22;;;19.20;100.00
30636;BME280;17400;52.392;9.750;2022-07-22T06:14:28;101327.66;;;19.15;100.00
30636;BME280;17400;52.392;9.750;2022-07-22T06:16:56;101326.34;;;19.18;100.00
30636;BME280;17400;52.392;9.750;2022-07-22T06:19:23;101331.34;;;19.21;100.00
30636;BME280;17400;52.392;9.750;2022-07-22T06:21:53;101323.59;;;19.29;100.00
30636;BME280;17400;52.392;9.750;2022-07-22T06:24:20;101327.41;;;19.40;100.00
30636;BME280;17400;52.392;9.750;2022-07-22T06:26:51;101327.00;;;19.48;100.00
30636;BME280;17400;52.392;9.750;2022-07-22T06:29:19;101330.22;;;19.57;100.00
30636;BME280;17400;52.392;9.750;2022-07-22T06:31:47;101326.06;;;19.55;100.00
30636;BME280;17400;52.392;9.750;2022-07-22T06:34:15;101324.53;;;19.35;100.00
30636;BME280;17400;52.392;9.750;2022-07-22T06:36:43;101336.94;;;19.38;100.00
30636;BME280;17400;52.392;9.750;2022-07-22T06:39:12;101328.69;;;19.50;100.00
30636;BME280;17400;52.392;9.750;2022-07-22T06:41:40;101333.34;;;19.49;100.00
30636;BME280;17400;52.392;9.750;2022-07-22T06:44:07;101334.94;;;19.33;100.00
30636;BME280;17400;52.392;9.750;2022-07-22T06:46:35;101332.06;;;19.28;100.00
30636;BME280;17400;52.392;9.750;2022-07-22T06:49:04;101336.38;;;19.24;100.00
30636;BME280;17400;52.392;9.750;2022-07-22T06:51:32;101338.63;;;19.27;100.00
30636;BME280;17400;52.392;9.750;2022-07-22T06:54:00;101333.38;;;19.37;100.00
30636;BME280;17400;52.392;9.750;2022-07-22T06:56:29;101336.38;;;19.24;100.00
30636;BME280;17400;52.392;9.750;2022-07-22T06:58:57;101332.75;;;19.35;100.00
30636;BME280;17400;52.392;9.750;2022-07-22T07:01:25;101342.31;;;19.44;100.00
30636;BME280;17400;52.392;9.750;2022-07-22T07:03:53;101334.78;;;19.52;100.00
30636;BME280;17400;52.392;9.750;2022-07-22T07:06:21;101335.38;;;19.54;100.00
30636;BME280;17400;52.392;9.750;2022-07-22T07:08:49;101329.53;;;19.62;100.00
30636;BME280;17400;52.392;9.750;2022-07-22T07:11:16;101341.44;;;19.68;100.00
30636;BME280;17400;52.392;9.750;2022-07-22T07:13:47;101339.25;;;19.70;100.00
30636;BME280;17400;52.392;9.750;2022-07-22T07:16:15;101338.66;;;19.79;100.00
30636;BME280;17400;52.392;9.750;2022-07-22T07:18:42;101340.78;;;19.77;100.00
30636;BME280;17400;52.392;9.750;2022-07-22T07:21:10;101333.63;;;19.76;100.00
30636;BME280;17400;52.392;9.750;2022-07-22T07:23:39;101341.19;;;19.69;100.00
30636;BME280;17400;52.392;9.750;2022-07-22T07:26:07;101340.38;;;19.57;100.00
30636;BME280;17400;52.392;9.750;2022-07-22T07:28:36;101346.22;;;19.48;100.00
30636;BME280;17400;52.392;9.750;2022-07-22T07:31:08;101346.72;;;19.45;100.00
30636;BME280;17400;52.392;9.750;2022-07-22T07:33:36;101346.13;;;19.43;100.00
30636;BME280;17400;52.392;9.750;2022-07-22T07:36:05;101345.16;;;19.50;100.00
30636;BME280;17400;52.392;9.750;2022-07-22T07:38:34;101344.34;;;19.49;100.00
30636;BME280;17400;52.392;9.750;2022-07-22T07:41:02;101349.59;;;19.51;100.00
30636;BME280;17400;52.392;9.750;2022-07-22T07:43:30;101347.31;;;19.59;100.00
30636;BME280;17400;52.392;9.750;2022-07-22T07:45:58;101349.09;;;19.54;100.00
30636;BME280;17400;52.392;9.750;2022-07-22T07:48:27;101350.22;;;19.41;100.00
30636;BME280;17400;52.392;9.750;2022-07-22T07:50:54;101354.25;;;19.50;100.00
30636;BME280;17400;52.392;9.750;2022-07-22T07:53:22;101353.25;;;19.68;100.00
30636;BME280;17400;52.392;9.750;2022-07-22T07:55:50;101354.66;;;19.83;100.00
30636;BME280;17400;52.392;9.750;2022-07-22T07:58:18;101340.34;;;19.80;100.00
30636;BME280;17400;52.392;9.750;2022-07-22T08:00:47;101330.72;;;19.95;100.00
30636;BME280;17400;52.392;9.750;2022-07-22T08:03:15;101327.59;;;20.03;100.00
30636;BME280;17400;52.392;9.750;2022-07-22T08:05:44;101324.81;;;20.15;100.00
30636;BME280;17400;52.392;9.750;2022-07-22T08:08:12;101327.25;;;20.28;100.00
30636;BME280;17400;52.392;9.750;2022-07-22T08:10:41;101332.00;;;20.33;100.00
30636;BME280;17400;52.392;9.750;2022-07-22T08:13:27;101335.81;;;20.32;100.00
30636;BME280;17400;52.392;9.750;2022-07-22T08:15:55;101329.66;;;20.25;100.00
30636;BME280;17400;52.392;9.750;2022-07-22T08:18:24;101330.91;;;20.34;100.00
30636;BME280;17400;52.392;9.750;2022-07-22T08:20:54;101335.34;;;20.35;100.00
30636;BME280;17400;52.392;9.750;2022-07-22T08:23:21;101333.72;;;20.22;100.00
30636;BME280;17400;52.392;9.750;2022-07-22T08:25:52;101333.63;;;20.17;100.00
30636;BME280;17400;52.392;9.750;2022-07-22T08:28:20;101342.22;;;20.21;100.00
30636;BME280;17400;52.392;9.750;2022-07-22T08:30:47;101338.16;;;20.23;100.00
30636;BME280;17400;52.392;9.750;2022-07-22T08:33:17;101347.66;;;20.33;100.00
30636;BME280;17400;52.392;9.750;2022-07-22T08:35:44;101345.25;;;20.36;100.00
30636;BME280;17400;52.392;9.750;2022-07-22T08:38:13;101342.47;;;20.19;100.00
30636;BME280;17400;52.392;9.750;2022-07-22T08:40:41;101346.44;;;20.11;100.00
30636;BME280;17400;52.392;9.750;2022-07-22T08:43:09;101343.25;;;20.03;100.00
30636;BME280;17400;52.392;9.750;2022-07-22T08:45:36;101346.34;;;20.06;100.00
30636;BME280;17400;52.392;9.750;2022-07-22T08:48:06;101343.84;;;20.05;100.00
30636;BME280;17400;52.392;9.750;2022-07-22T08:50:34;101349.19;;;20.11;100.00
30636;BME280;17400;52.392;9.750;2022-07-22T08:53:02;101342.72;;;20.18;100.00
30636;BME280;17400;52.392;9.750;2022-07-22T08:55:32;101346.66;;;20.22;100.00
30636;BME280;17400;52.392;9.750;2022-07-22T08:58:00;101350.41;;;20.33;100.00
30636;BME280;17400;52.392;9.750;2022-07-22T09:00:27;101350.00;;;20.41;100.00
30636;BME280;17400;52.392;9.750;2022-07-22T09:02:55;101355.66;;;20.34;100.00
30636;BME280;17400;52.392;9.750;2022-07-22T09:05:23;101346.44;;;20.40;100.00
30636;BME280;17400;52.392;9.750;2022-07-22T09:08:10;101349.91;;;20.36;100.00
30636;BME280;17400;52.392;9.750;2022-07-22T09:10:39;101351.22;;;20.33;100.00
30636;BME280;17400;52.392;9.750;2022-07-22T09:13:08;101346.81;;;20.32;100.00
30636;BME280;17400;52.392;9.750;2022-07-22T09:15:39;101346.41;;;20.23;100.00
30636;BME280;17400;52.392;9.750;2022-07-22T09:18:08;101350.97;;;20.18;100.00
30636;BME280;17400;52.392;9.750;2022-07-22T09:20:36;101361.81;;;20.24;100.00
30636;BME280;17400;52.392;9.750;2022-07-22T09:23:10;101362.13;;;20.28;100.00
30636;BME280;17400;52.392;9.750;2022-07-22T09:25:40;101352.41;;;20.20;100.00
30636;BME280;17400;52.392;9.750;2022-07-22T09:28:11;101351.38;;;20.26;100.00
30636;BME280;17400;52.392;9.750;2022-07-22T09:30:46;101348.00;;;20.36;100.00
30636;BME280;17400;52.392;9.750;2022-07-22T09:33:16;101354.63;;;20.23;100.00
30636;BME280;17400;52.392;9.750;2022-07-22T09:35:45;101350.97;;;20.18;100.00
30636;BME280;17400;52.392;9.750;2022-07-22T09:38:18;101360.28;;;20.17;100.00
30636;BME280;17400;52.392;9.750;2022-07-22T09:40:48;101359.47;;;20.33;100.00
30636;BME280;17400;52.392;9.750;2022-07-22T09:43:19;101358.50;;;20.39;100.00
30636;BME280;17400;52.392;9.750;2022-07-22T09:45:49;101360.75;;;20.42;100.00
30636;BME280;17400;52.392;9.750;2022-07-22T09:48:18;101366.06;;;20.32;100.00
30636;BME280;17400;52.392;9.750;2022-07-22T09:50:47;101361.97;;;20.35;100.00
30636;BME280;17400;52.392;9.750;2022-07-22T09:53:17;101366.75;;;20.39;100.00
30636;BME280;17400;52.392;9.750;2022-07-22T09:55:45;101361.34;;;20.44;100.00
30636;BME280;17400;52.392;9.750;2022-07-22T09:58:14;101361.91;;;20.46;100.00
30636;BME280;17400;52.392;9.750;2022-07-22T10:00:43;101362.34;;;20.38;100.00
30636;BME280;17400;52.392;9.750;2022-07-22T10:03:13;101363.91;;;20.34;100.00
30636;BME280;17400;52.392;9.750;2022-07-22T10:05:44;101361.97;;;20.35;100.00
30636;BME280;17400;52.392;9.750;2022-07-22T10:08:13;101371.34;;;20.34;100.00
30636;BME280;17400;52.392;9.750;2022-07-22T10:10:41;101367.47;;;20.35;100.00
30636;BME280;17400;52.392;9.750;2022-07-22T10:13:09;101364.97;;;20.33;100.00
30636;BME280;17400;52.392;9.750;2022-07-22T10:15:40;101362.34;;;20.38;100.00
30636;BME280;17400;52.392;9.750;2022-07-22T10:18:15;101365.53;;;20.47;100.00
30636;BME280;17400;52.392;9.750;2022-07-22T10:20:43;101368.22;;;20.59;100.00
30636;BME280;17400;52.392;9.750;2022-07-22T10:23:13;101367.19;;;20.65;100.00
30636;BME280;17400;52.392;9.750;2022-07-22T10:25:48;101364.59;;;20.58;100.00
30636;BME280;17400;52.392;9.750;2022-07-22T10:28:21;101366.50;;;20.70;98.96
30636;BME280;17400;52.392;9.750;2022-07-22T10:30:50;101368.19;;;20.88;97.21
30636;BME280;17400;52.392;9.750;2022-07-22T10:33:19;101349.91;;;20.82;95.73
30636;BME280;17400;52.392;9.750;2022-07-22T10:35:57;101356.13;;;20.60;97.36
30636;BME280;17400;52.392;9.750;2022-07-22T10:38:26;101353.69;;;20.63;97.23
30636;BME280;17400;52.392;9.750;2022-07-22T10:40:57;101350.06;;;20.75;97.27
30636;BME280;17400;52.392;9.750;2022-07-22T10:43:26;101365.88;;;20.68;96.86
30636;BME280;17400;52.392;9.750;2022-07-22T10:45:56;101354.28;;;20.66;97.74
30636;BME280;17400;52.392;9.750;2022-07-22T10:48:44;101354.03;;;20.67;97.86
30636;BME280;17400;52.392;9.750;2022-07-22T10:51:13;101358.03;;;20.59;97.95
30636;BME280;17400;52.392;9.750;2022-07-22T10:53:45;101352.41;;;20.37;99.82
30636;BME280;17400;52.392;9.750;2022-07-22T10:56:15;101347.00;;;20.42;99.83
30636;BME280;17400;52.392;9.750;2022-07-22T10:58:52;101353.91;;;20.45;99.92
30636;BME280;17400;52.392;9.750;2022-07-22T11:01:25;101353.66;;;20.46;99.58
30636;BME280;17400;52.392;9.750;2022-07-22T11:03:53;101359.25;;;20.52;99.67
30636;BME280;17400;52.392;9.750;2022-07-22T11:06:24;101362.00;;;20.52;98.50
30636;BME280;17400;52.392;9.750;2022-07-22T11:08:54;101355.69;;;20.51;98.29
30636;BME280;17400;52.392;9.750;2022-07-22T11:11:34;101350.75;;;20.53;97.27
30636;BME280;17400;52.392;9.750;2022-07-22T11:14:14;101363.13;;;20.51;96.62
30636;BME280;17400;52.392;9.750;2022-07-22T11:16:45;101360.22;;;20.57;95.70
30636;BME280;17400;52.392;9.750;2022-07-22T11:19:13;101354.03;;;20.67;95.23
30636;BME280;17400;52.392;9.750;2022-07-22T11:21:41;101351.03;;;20.69;94.81
30636;BME280;17400;52.392;9.750;2022-07-22T11:24:11;101350.41;;;20.78;94.99
30636;BME280;17400;52.392;9.750;2022-07-22T11:26:42;101348.41;;;20.74;93.79
30636;BME280;17400;52.392;9.750;2022-07-22T11:29:16;101344.97;;;20.84;94.14
30636;BME280;17400;52.392;9.750;2022-07-22T11:31:45;101349.91;;;20.82;93.18
30636;BME280;17400;52.392;9.750;2022-07-22T11:34:15;101348.22;;;20.80;93.37
30636;BME280;17400;52.392;9.750;2022-07-22T11:36:44;101346.06;;;20.83;93.11
30636;BME280;17400;52.392;9.750;2022-07-22T11:39:14;101340.16;;;20.91;92.11
30636;BME280;17400;52.392;9.750;2022-07-22T11:41:42;101344.06;;;20.95;92.80
30636;BME280;17400;52.392;9.750;2022-07-22T11:44:09;101343.31;;;20.83;92.64
30636;BME280;17400;52.392;9.750;2022-07-22T11:46:39;101341.06;;;20.79;93.21
30636;BME280;17400;52.392;9.750;2022-07-22T11:49:09;101333.34;;;20.64;92.87
30636;BME280;17400;52.392;9.750;2022-07-22T11:51:37;101332.16;;;20.72;93.56
30636;BME280;17400;52.392;9.750;2022-07-22T11:54:05;101340.56;;;20.83;93.27
30636;BME280;17400;52.392;9.750;2022-07-22T11:56:34;101340.16;;;20.91;92.67
30636;BME280;17400;52.392;9.750;2022-07-22T11:59:02;101343.41;;;20.88;91.90
30636;BME280;17400;52.392;9.750;2022-07-22T12:01:33;101346.72;;;20.90;90.21
30636;BME280;17400;52.392;9.750;2022-07-22T12:04:03;101337.81;;;20.83;90.44
30636;BME280;17400;52.392;9.750;2022-07-22T12:06:34;101338.00;;;20.76;90.97
30636;BME280;17400;52.392;9.750;2022-07-22T12:09:06;101339.25;;;20.85;91.70
30636;BME280;17400;52.392;9.750;2022-07-22T12:11:36;101337.38;;;20.91;90.91
30636;BME280;17400;52.392;9.750;2022-07-22T12:14:06;101341.31;;;20.95;90.71
30636;BME280;17400;52.392;9.750;2022-07-22T12:16:42;101330.63;;;20.99;90.44
30636;BME280;17400;52.392;9.750;2022-07-22T12:19:12;101327.53;;;20.95;89.76
30636;BME280;17400;52.392;9.750;2022-07-22T12:21:54;101329.56;;;21.00;90.10
30636;BME280;17400;52.392;9.750;2022-07-22T12:24:28;101334.22;;;20.99;90.18
30636;BME280;17400;52.392;9.750;2022-07-22T12:26:57;101322.19;;;21.05;89.71
30636;BME280;17400;52.392;9.750;2022-07-22T12:29:27;101322.75;;;21.07;89.11
30636;BME280;17400;52.392;9.750;2022-07-22T12:31:57;101321.88;;;21.02;89.81
30636;BME280;17400;52.392;9.750;2022-07-22T12:34:36;101325.69;;;21.01;90.02
30636;BME280;17400;52.392;9.750;2022-07-22T12:37:17;101320.88;;;21.08;89.80
30636;BME280;17400;52.392;9.750;2022-07-22T12:39:55;101320.19;;;21.01;88.85
30636;BME280;17400;52.392;9.750;2022-07-22T12:42:24;101323.13;;;20.94;90.37
30636;BME280;17400;52.392;9.750;2022-07-22T12:45:01;101319.09;;;21.02;90.38
30636;BME280;17400;52.392;9.750;2022-07-22T12:47:46;101318.84;;;21.03;90.26
30636;BME280;17400;52.392;9.750;2022-07-22T12:50:16;101324.94;;;21.05;90.40
30636;BME280;17400;52.392;9.750;2022-07-22T12:52:45;101322.75;;;21.07;89.49
30636;BME280;17400;52.392;9.750;2022-07-22T12:55:35;101333.22;;;21.05;88.88
30636;BME280;17400;52.392;9.750;2022-07-22T12:58:04;101318.78;;;20.98;89.04
30636;BME280;17400;52.392;9.750;2022-07-22T13:00:33;101321.34;;;21.05;89.67
30636;BME280;17400;52.392;9.750;2022-07-22T13:03:02;101319.53;;;21.10;88.81
30636;BME280;17400;52.392;9.750;2022-07-22T13:05:30;101319.69;;;21.21;88.67
30636;BME280;17400;52.392;9.750;2022-07-22T13:07:59;101310.81;;;21.19;87.71
30636;BME280;17400;52.392;9.750;2022-07-22T13:10:34;101305.38;;;21.24;87.90
30636;BME280;17400;52.392;9.750;2022-07-22T13:13:05;101306.53;;;21.28;88.17
30636;BME280;17400;52.392;9.750;2022-07-22T13:15:32;101309.56;;;21.26;87.79
30636;BME280;17400;52.392;9.750;2022-07-22T13:18:00;101299.66;;;21.08;88.04
30636;BME280;17400;52.392;9.750;2022-07-22T13:20:28;101307.66;;;21.10;88.33
30636;BME280;17400;52.392;9.750;2022-07-22T13:22:55;101309.34;;;21.11;88.09
30636;BME280;17400;52.392;9.750;2022-07-22T13:25:24;101308.19;;;21.07;88.75
30636;BME280;17400;52.392;9.750;2022-07-22T13:27:53;101309.06;;;21.12;88.81
30636;BME280;17400;52.392;9.750;2022-07-22T13:30:21;101303.00;;;21.10;88.89
30636;BME280;17400;52.392;9.750;2022-07-22T13:32:49;101310.09;;;21.06;88.69
30636;BME280;17400;52.392;9.750;2022-07-22T13:35:17;101318.53;;;21.00;89.16
30636;BME280;17400;52.392;9.750;2022-07-22T13:37:45;101310.50;;;20.98;88.88
30636;BME280;17400;52.392;9.750;2022-07-22T13:40:13;101314.44;;;21.02;89.05
30636;BME280;17400;52.392;9.750;2022-07-22T13:42:42;101311.44;;;21.04;88.88
30636;BME280;17400;52.392;9.750;2022-07-22T13:45:10;101308.91;;;21.02;88.61
30636;BME280;17400;52.392;9.750;2022-07-22T13:47:39;101308.78;;;21.09;88.48
30636;BME280;17400;52.392;9.750;2022-07-22T13:50:08;101303.31;;;21.14;88.56
30636;BME280;17400;52.392;9.750;2022-07-22T13:52:36;101300.88;;;21.18;87.81
30636;BME280;17400;52.392;9.750;2022-07-22T13:55:04;101304.78;;;21.22;87.74
30636;BME280;17400;52.392;9.750;2022-07-22T13:57:33;101305.38;;;21.24;87.18
30636;BME280;17400;52.392;9.750;2022-07-22T14:00:03;101305.19;;;21.30;87.31
30636;BME280;17400;52.392;9.750;2022-07-22T14:02:40;101307.06;;;21.25;86.74
30636;BME280;17400;52.392;9.750;2022-07-22T14:05:08;101308.66;;;21.21;87.31
30636;BME280;17400;52.392;9.750;2022-07-22T14:07:35;101306.16;;;21.02;88.17
30636;BME280;17400;52.392;9.750;2022-07-22T14:10:04;101308.91;;;21.02;88.25
30636;BME280;17400;52.392;9.750;2022-07-22T14:12:32;101306.94;;;20.97;88.21
30636;BME280;17400;52.392;9.750;2022-07-22T14:15:00;101300.19;;;21.05;88.60
30636;BME280;17400;52.392;9.750;2022-07-22T14:17:31;101304.00;;;21.04;89.09
30636;BME280;17400;52.392;9.750;2022-07-22T14:19:59;101301.84;;;21.06;88.57
30636;BME280;17400;52.392;9.750;2022-07-22T14:22:27;101294.66;;;21.05;88.81
30636;BME280;17400;52.392;9.750;2022-07-22T14:24:57;101292.00;;;21.10;88.63
30636;BME280;17400;52.392;9.750;2022-07-22T14:27:24;101298.06;;;21.12;88.50
30636;BME280;17400;52.392;9.750;2022-07-22T14:29:53;101289.88;;;21.18;88.34
30636;BME280;17400;52.392;9.750;2022-07-22T14:32:20;101291.03;;;21.22;88.21
30636;BME280;17400;52.392;9.750;2022-07-22T14:34:49;101289.69;;;21.24;87.62
30636;BME280;17400;52.392;9.750;2022-07-22T14:37:17;101294.50;;;21.12;88.07
30636;BME280;17400;52.392;9.750;2022-07-22T14:39:52;101286.50;;;21.10;88.36
30636;BME280;17400;52.392;9.750;2022-07-22T14:42:20;101296.84;;;21.03;88.64
30636;BME280;17400;52.392;9.750;2022-07-22T14:44:47;101298.50;;;21.04;88.99
30636;BME280;17400;52.392;9.750;2022-07-22T14:47:15;101302.03;;;21.00;89.18
30636;BME280;17400;52.392;9.750;2022-07-22T14:49:43;101296.84;;;21.03;89.02
30636;BME280;17400;52.392;9.750;2022-07-22T14:52:11;101296.91;;;21.08;89.18
30636;BME280;17400;52.392;9.750;2022-07-22T14:54:39;101295.56;;;21.11;88.81
30636;BME280;17400;52.392;9.750;2022-07-22T14:57:07;101299.16;;;21.11;88.62
30636;BME280;17400;52.392;9.750;2022-07-22T14:59:34;101294.50;;;21.12;88.79
30636;BME280;17400;52.392;9.750;2022-07-22T15:02:02;101295.75;;;21.04;88.62
30636;BME280;17400;52.392;9.750;2022-07-22T15:04:30;101295.59;;;20.94;89.02
30636;BME280;17400;52.392;9.750;2022-07-22T15:06:57;101292.41;;;21.02;89.03
30636;BME280;17400;52.392;9.750;2022-07-22T15:09:27;101286.97;;;21.07;88.95
30636;BME280;17400;52.392;9.750;2022-07-22T15:11:54;101286.75;;;21.09;88.05
30636;BME280;17400;52.392;9.750;2022-07-22T15:14:22;101293.25;;;21.03;88.40
30636;BME280;17400;52.392;9.750;2022-07-22T15:16:50;101289.44;;;21.04;88.41
30636;BME280;17400;52.392;9.750;2022-07-22T15:19:18;101288.56;;;21.03;88.23
30636;BME280;17400;52.392;9.750;2022-07-22T15:21:52;101288.31;;;21.05;88.33
30636;BME280;17400;52.392;9.750;2022-07-22T15:24:20;101289.66;;;21.02;88.16
30636;BME280;17400;52.392;9.750;2022-07-22T15:26:49;101288.09;;;21.06;88.05
30636;BME280;17400;52.392;9.750;2022-07-22T15:29:17;101277.50;;;20.98;88.62
30636;BME280;17400;52.392;9.750;2022-07-22T15:31:45;101282.34;;;20.91;89.10
30636;BME280;17400;52.392;9.750;2022-07-22T15:34:12;101273.31;;;20.95;88.89
30636;BME280;17400;52.392;9.750;2022-07-22T15:36:40;101267.44;;;20.87;89.55
30636;BME280;17400;52.392;9.750;2022-07-22T15:39:08;101272.69;;;20.88;89.37
30636;BME280;17400;52.392;9.750;2022-07-22T15:41:35;101270.19;;;20.87;89.38
30636;BME280;17400;52.392;9.750;2022-07-22T15:44:06;101261.84;;;20.82;89.43
30636;BME280;17400;52.392;9.750;2022-07-22T15:46:34;101271.25;;;20.86;89.29
30636;BME280;17400;52.392;9.750;2022-07-22T15:49:02;101259.00;;;20.93;88.75
30636;BME280;17400;52.392;9.750;2022-07-22T15:51:30;101263.72;;;20.98;88.86
30636;BME280;17400;52.392;9.750;2022-07-22T15:53:58;101263.31;;;21.06;88.33
30636;BME280;17400;52.392;9.750;2022-07-22T15:56:26;101266.00;;;21.01;87.98
30636;BME280;17400;52.392;9.750;2022-07-22T15:58:54;101270.66;;;21.01;87.86
30636;BME280;17400;52.392;9.750;2022-07-22T16:01:57;101273.13;;;21.02;88.19
30636;BME280;17400;52.392;9.750;2022-07-22T16:04:25;101273.31;;;20.95;88.21
30636;BME280;17400;52.392;9.750;2022-07-22T16:06:53;101276.03;;;20.90;88.32
30636;BME280;17400;52.392;9.750;2022-07-22T16:09:21;101281.28;;;20.75;89.69
30636;BME280;17400;52.392;9.750;2022-07-22T16:11:53;101272.69;;;20.71;90.04
30636;BME280;17400;52.392;9.750;2022-07-22T16:14:21;101269.00;;;20.66;90.36
30636;BME280;17400;52.392;9.750;2022-07-22T16:16:48;101267.00;;;20.61;90.64
30636;BME280;17400;52.392;9.750;2022-07-22T16:19:18;101267.34;;;20.64;90.75
30636;BME280;17400;52.392;9.750;2022-07-22T16:21:45;101264.69;;;20.70;90.37
30636;BME280;17400;52.392;9.750;2022-07-22T16:24:13;101256.28;;;20.76;90.15
30636;BME280;17400;52.392;9.750;2022-07-22T16:26:41;101252.00;;;20.86;89.70
30636;BME280;17400;52.392;9.750;2022-07-22T16:29:09;101254.84;;;20.91;89.54
30636;BME280;17400;52.392;9.750;2022-07-22T16:31:36;101256.91;;;20.84;89.00
30636;BME280;17400;52.392;9.750;2022-07-22T16:34:04;101255.09;;;20.89;88.86
30636;BME280;17400;52.392;9.750;2022-07-22T16:36:33;101244.38;;;20.93;88.31
30636;BME280;17400;52.392;9.750;2022-07-22T16:39:03;101243.56;;;20.92;88.12
30636;BME280;17400;52.392;9.750;2022-07-22T16:41:31;101241.41;;;20.94;88.06
30636;BME280;17400;52.392;9.750;2022-07-22T16:43:59;101238.06;;;20.92;87.23
30636;BME280;17400;52.392;9.750;2022-07-22T16:46:27;101246.06;;;20.94;87.11
30636;BME280;17400;52.392;9.750;2022-07-22T16:48:55;101240.81;;;20.92;87.25
30636;BME280;17400;52.392;9.750;2022-07-22T16:51:23;101234.22;;;20.93;87.30
30636;BME280;17400;52.392;9.750;2022-07-22T16:53:57;101240.81;;;20.92;87.47
30636;BME280;17400;52.392;9.750;2022-07-22T16:56:25;101238.31;;;20.91;87.33
30636;BME280;17400;52.392;9.750;2022-07-22T16:58:52;101232.47;;;20.87;87.35